Time;durP1;ratioP1;P1;durP2;ratioP2;P2;SDS_P1;SDS_P2;PMS_P1;PMS_P2;Temp;Humidity;BMP_temperature;BMP_pressure;BME280_temperature;BME280_humidity;BME280_pressure;Samples;Min_cycle;Max_cycle;Signal;HPM_P1;HPM_P2
2021/01/12 00:02:21;;;;;;;143.25;74.40;;;;;;;-5.02;80.12;98532.70;1739349;82;21008;-64
2021/01/12 00:04:48;;;;;;;135.10;70.45;;;;;;;-5.04;80.23;98527.91;1750015;82;21387;-63
2021/01/12 00:07:21;;;;;;;122.42;66.62;;;;;;;-5.06;80.40;98520.52;1780794;80;20956;-63
2021/01/12 00:09:50;;;;;;;97.33;53.28;;;;;;;-5.04;80.49;98530.98;1816913;79;20975;-64
2021/01/12 00:12:18;;;;;;;94.28;53.48;;;;;;;-5.05;80.55;98526.61;1749964;81;20922;-64
2021/01/12 00:14:48;;;;;;;96.87;50.35;;;;;;;-5.04;80.66;98529.67;1780882;80;20919;-64
2021/01/12 00:17:17;;;;;;;95.60;50.60;;;;;;;-5.04;80.98;98520.51;1816914;79;21362;-64
2021/01/12 00:19:44;;;;;;;93.97;50.85;;;;;;;-5.00;81.13;98513.05;1749827;82;20953;-64
2021/01/12 00:22:14;;;;;;;99.35;51.85;;;;;;;-4.99;81.21;98510.87;1780865;80;20976;-64
2021/01/12 00:24:48;;;;;;;105.37;55.50;;;;;;;-4.97;81.05;98509.96;1816919;79;21020;-64
2021/01/12 00:27:20;;;;;;;99.50;51.75;;;;;;;-4.96;80.97;98518.71;1817105;79;20913;-64
2021/01/12 00:29:48;;;;;;;97.12;50.20;;;;;;;-4.97;80.94;98515.20;1816995;79;21190;-64
2021/01/12 00:32:24;;;;;;;92.97;49.38;;;;;;;-4.98;80.92;98515.20;1749927;82;20941;-64
2021/01/12 00:34:53;;;;;;;94.90;48.50;;;;;;;-4.96;80.87;98513.47;1780852;80;20991;-64
2021/01/12 00:37:24;;;;;;;89.85;47.90;;;;;;;-4.98;80.84;98515.20;1816862;79;20997;-63
2021/01/12 00:39:53;;;;;;;87.10;46.77;;;;;;;-4.98;80.87;98513.89;1816831;79;21019;-63
2021/01/12 00:42:22;;;;;;;74.82;40.12;;;;;;;-5.00;80.82;98506.49;1816873;79;21362;-63
2021/01/12 00:44:51;;;;;;;76.30;39.83;;;;;;;-5.01;80.86;98507.36;1749847;82;21001;-64
2021/01/12 00:47:23;;;;;;;90.80;45.90;;;;;;;-5.01;80.99;98510.88;1780911;80;20928;-63
2021/01/12 00:49:48;;;;;;;94.95;46.37;;;;;;;-5.00;81.04;98512.59;1816629;79;21338;-63
2021/01/12 00:52:15;;;;;;;85.57;43.20;;;;;;;-5.00;80.94;98514.35;1816952;79;20880;-64
2021/01/12 00:54:42;;;;;;;87.15;43.78;;;;;;;-5.02;80.92;98503.88;1749874;82;21372;-65
2021/01/12 00:57:12;;;;;;;79.35;43.17;;;;;;;-5.02;80.96;98497.78;1780765;80;21962;-63
2021/01/12 00:59:45;;;;;;;83.15;42.48;;;;;;;-5.01;80.84;98495.57;1816685;79;21460;-64
2021/01/12 01:02:08;;;;;;;75.78;40.00;;;;;;;-5.02;80.72;98499.09;1749168;82;21040;-63
2021/01/12 01:04:37;;;;;;;78.10;38.98;;;;;;;-5.04;80.78;98492.55;1771914;80;21351;-63
2021/01/12 01:07:05;;;;;;;81.67;42.00;;;;;;;-5.04;80.92;98483.84;1739334;82;21383;-63
2021/01/12 01:09:32;;;;;;;65.57;37.10;;;;;;;-5.03;81.06;98485.55;1739208;82;20964;-63
2021/01/12 01:12:00;;;;;;;74.22;38.90;;;;;;;-5.02;81.10;98475.06;1769903;81;21414;-63
2021/01/12 01:14:27;;;;;;;79.87;42.95;;;;;;;-5.00;81.15;98475.06;1739216;82;20929;-62
2021/01/12 01:16:54;;;;;;;105.83;55.10;;;;;;;-4.99;81.12;98473.74;1737789;82;20936;-63
2021/01/12 01:19:23;;;;;;;104.20;53.08;;;;;;;-4.97;81.12;98460.63;1739297;82;21251;-64
2021/01/12 01:21:52;;;;;;;100.87;50.73;;;;;;;-4.95;81.07;98461.07;1769787;81;20984;-64
2021/01/12 01:24:21;;;;;;;70.52;36.73;;;;;;;-4.94;80.92;98460.17;1739380;82;20996;-63
2021/01/12 01:26:56;;;;;;;49.93;28.80;;;;;;;-4.94;80.73;98456.69;1739210;82;20988;-63
2021/01/12 01:29:23;;;;;;;45.67;28.55;;;;;;;-4.93;80.74;98457.12;1769035;81;20968;-63
2021/01/12 01:31:52;;;;;;;64.30;33.83;;;;;;;-4.93;80.85;98453.20;1739366;82;21271;-64
2021/01/12 01:34:21;;;;;;;71.72;34.95;;;;;;;-4.91;80.91;98448.81;1739224;82;21031;-64
2021/01/12 01:36:50;;;;;;;65.62;33.13;;;;;;;-4.90;80.81;98448.80;1769868;81;21047;-64
2021/01/12 01:39:18;;;;;;;65.50;31.25;;;;;;;-4.87;80.77;98445.30;1739169;82;20936;-63
2021/01/12 01:41:46;;;;;;;66.17;32.15;;;;;;;-4.85;80.78;98440.05;1739356;82;20921;-63
2021/01/12 01:44:13;;;;;;;77.17;40.20;;;;;;;-4.83;80.71;98438.28;1769881;81;21378;-64
2021/01/12 01:46:42;;;;;;;128.02;60.55;;;;;;;-4.81;80.64;98434.78;1739220;82;21000;-64
2021/01/12 01:49:11;;;;;;;83.50;39.88;;;;;;;-4.80;80.57;98435.19;1739258;82;20957;-64
2021/01/12 01:51:39;;;;;;;54.95;28.17;;;;;;;-4.78;80.30;98429.94;1769868;81;21039;-65
2021/01/12 01:54:10;;;;;;;49.65;26.82;;;;;;;-4.78;80.15;98436.04;1739313;82;20945;-64
2021/01/12 01:56:37;;;;;;;27.05;17.82;;;;;;;-4.77;80.08;98436.48;1739336;82;21315;-64
2021/01/12 01:59:05;;;;;;;29.82;19.55;;;;;;;-4.77;80.01;98433.86;1769702;81;20965;-63
2021/01/12 02:01:36;;;;;;;25.35;17.62;;;;;;;-4.78;79.91;98435.18;1739356;82;21000;-63
2021/01/12 02:04:17;;;;;;;27.65;18.82;;;;;;;-4.79;79.95;98438.25;1747928;81;20944;-63
2021/01/12 02:06:47;;;;;;;29.60;19.95;;;;;;;-4.79;79.90;98435.62;1789423;80;21357;-62
2021/01/12 02:09:30;;;;;;;30.97;19.23;;;;;;;-4.80;79.70;98423.40;1828637;78;21338;-63
2021/01/12 02:11:58;;;;;;;24.55;17.55;;;;;;;-4.82;79.58;98422.55;1758362;81;20969;-63
2021/01/12 02:14:28;;;;;;;23.73;17.12;;;;;;;-4.83;79.46;98428.66;1789670;80;20924;-63
2021/01/12 02:16:56;;;;;;;40.83;23.92;;;;;;;-4.86;79.46;98426.06;1828633;78;20911;-64
2021/01/12 02:19:26;;;;;;;33.92;20.08;;;;;;;-4.88;79.43;98422.59;1828590;78;20951;-64
2021/01/12 02:22:01;;;;;;;24.77;17.95;;;;;;;-4.88;79.53;98423.91;1828721;78;21440;-63
2021/01/12 02:24:31;;;;;;;26.35;17.35;;;;;;;-4.89;79.55;98428.70;1828678;78;20996;-63
2021/01/12 02:26:58;;;;;;;26.15;18.20;;;;;;;-4.90;79.57;98419.98;1758618;81;20961;-64
2021/01/12 02:29:25;;;;;;;24.92;18.05;;;;;;;-4.89;79.52;98420.84;1789760;80;20915;-63
2021/01/12 02:31:53;;;;;;;24.10;16.87;;;;;;;-4.90;79.50;98421.74;1828921;78;20979;-63
2021/01/12 02:34:21;;;;;;;33.88;20.80;;;;;;;-4.92;79.40;98426.09;1758542;81;21394;-63
2021/01/12 02:36:49;;;;;;;33.95;21.17;;;;;;;-4.93;79.42;98419.14;1789885;80;20975;-64
2021/01/12 02:39:17;;;;;;;27.85;20.05;;;;;;;-4.94;79.40;98414.77;1828712;78;20928;-63
2021/01/12 02:41:45;;;;;;;30.07;20.77;;;;;;;-4.96;79.41;98422.64;1828818;78;20924;-63
2021/01/12 02:44:21;;;;;;;25.05;17.57;;;;;;;-4.97;79.47;98418.72;1758617;81;21012;-63
2021/01/12 02:46:52;;;;;;;27.98;19.00;;;;;;;-4.97;79.57;98418.72;1789834;80;21173;-63
2021/01/12 02:49:20;;;;;;;27.45;17.27;;;;;;;-5.00;79.47;98407.81;1828834;78;21468;-63
2021/01/12 02:51:47;;;;;;;23.70;16.87;;;;;;;-5.01;79.34;98418.30;1758551;81;20902;-64
2021/01/12 02:54:15;;;;;;;24.10;17.30;;;;;;;-5.03;79.37;98406.97;1789748;80;20928;-63
2021/01/12 02:56:42;;;;;;;20.92;17.00;;;;;;;-5.05;79.24;98408.74;1828861;78;20932;-63
2021/01/12 02:59:10;;;;;;;24.30;17.15;;;;;;;-5.06;79.22;98403.06;1758449;81;21370;-63
2021/01/12 03:01:38;;;;;;;28.73;17.40;;;;;;;-5.09;79.25;98398.28;1789793;80;20932;-63
2021/01/12 03:04:05;;;;;;;24.35;18.30;;;;;;;-5.11;79.21;98397.44;1819241;78;20909;-64
2021/01/12 03:06:34;;;;;;;22.65;15.50;;;;;;;-5.13;79.22;98397.86;1798459;79;20873;-64
2021/01/12 03:09:03;;;;;;;26.77;17.10;;;;;;;-5.14;79.20;98389.59;1720177;82;20956;-63
2021/01/12 03:11:32;;;;;;;26.60;15.63;;;;;;;-5.18;79.11;98393.10;1798491;79;21361;-63
2021/01/12 03:13:59;;;;;;;26.23;17.10;;;;;;;-5.19;79.03;98391.35;1720056;83;20992;-63
2021/01/12 03:16:27;;;;;;;25.12;16.77;;;;;;;-5.21;79.00;98389.20;1798266;79;20873;-64
2021/01/12 03:18:54;;;;;;;22.37;15.88;;;;;;;-5.24;78.89;98381.36;1720080;82;20937;-63
2021/01/12 03:21:22;;;;;;;24.57;17.32;;;;;;;-5.25;78.96;98386.15;1798548;79;20960;-63
2021/01/12 03:23:50;;;;;;;22.52;17.15;;;;;;;-5.27;79.00;98381.38;1798483;79;21135;-64
2021/01/12 03:26:21;;;;;;;27.73;16.75;;;;;;;-5.29;78.92;98376.59;1798415;79;20949;-63
2021/01/12 03:28:49;;;;;;;24.60;16.90;;;;;;;-5.30;78.76;98379.66;1720105;83;20897;-63
2021/01/12 03:31:17;;;;;;;25.97;18.07;;;;;;;-5.32;78.78;98377.47;1798442;79;20913;-63
2021/01/12 03:33:44;;;;;;;29.95;18.45;;;;;;;-5.34;79.01;98375.77;1720193;83;20937;-63
2021/01/12 03:36:12;;;;;;;22.65;15.83;;;;;;;-5.35;79.13;98376.63;1798340;79;21371;-64
2021/01/12 03:38:40;;;;;;;33.28;20.55;;;;;;;-5.35;79.22;98379.25;1719983;82;21008;-64
2021/01/12 03:41:07;;;;;;;44.25;23.57;;;;;;;-5.36;79.30;98374.46;1798494;79;20933;-63
2021/01/12 03:43:36;;;;;;;55.03;29.77;;;;;;;-5.36;79.40;98370.53;1720115;83;20897;-64
2021/01/12 03:46:04;;;;;;;57.85;27.50;;;;;;;-5.36;79.39;98360.48;1798441;79;21346;-64
2021/01/12 03:48:33;;;;;;;55.00;28.55;;;;;;;-5.36;79.38;98361.80;1798389;79;21368;-64
2021/01/12 03:51:00;;;;;;;54.30;28.12;;;;;;;-5.36;79.27;98353.94;1720125;82;20988;-64
2021/01/12 03:53:28;;;;;;;63.90;30.92;;;;;;;-5.36;79.11;98356.55;1798439;79;20882;-63
2021/01/12 03:55:56;;;;;;;67.62;31.30;;;;;;;-5.38;79.12;98347.85;1720064;82;20932;-64
2021/01/12 03:58:25;;;;;;;79.55;37.28;;;;;;;-5.39;79.29;98350.03;1798339;79;20981;-63
2021/01/12 04:00:53;;;;;;;58.23;28.52;;;;;;;-5.39;79.46;98346.10;1798452;79;21204;-63
2021/01/12 04:03:20;;;;;;;54.15;25.45;;;;;;;-5.40;79.49;98349.17;1720052;82;20996;-64
2021/01/12 04:05:49;;;;;;;27.82;17.95;;;;;;;-5.38;79.58;98343.92;1804796;79;20877;-63
2021/01/12 04:08:17;;;;;;;25.32;16.37;;;;;;;-5.37;79.61;98339.13;1739364;82;20954;-63
2021/01/12 04:10:44;;;;;;;20.80;15.28;;;;;;;-5.37;79.57;98339.13;1769922;81;20913;-63
2021/01/12 04:13:11;;;;;;;22.65;16.23;;;;;;;-5.34;79.40;98341.73;1739401;82;21153;-64
2021/01/12 04:15:40;;;;;;;24.47;15.65;;;;;;;-5.35;79.35;98339.98;1739244;82;21032;-64
2021/01/12 04:18:09;;;;;;;29.15;17.30;;;;;;;-5.35;79.37;98329.51;1769871;81;20972;-64
2021/01/12 04:20:38;;;;;;;21.20;15.40;;;;;;;-5.35;79.30;98325.58;1739286;82;20932;-63
2021/01/12 04:23:06;;;;;;;24.18;16.70;;;;;;;-5.35;79.20;98325.58;1737799;82;20945;-63
2021/01/12 04:25:37;;;;;;;21.95;15.48;;;;;;;-5.36;79.14;98323.83;1769855;81;21371;-63
2021/01/12 04:28:05;;;;;;;30.60;17.42;;;;;;;-5.37;79.02;98329.97;1716660;82;20964;-63
2021/01/12 04:30:33;;;;;;;26.15;17.45;;;;;;;-5.38;79.00;98321.67;1739392;82;21016;-63
2021/01/12 04:33:01;;;;;;;22.77;17.15;;;;;;;-5.41;79.12;98326.48;1769868;81;21008;-63
2021/01/12 04:35:29;;;;;;;27.10;17.75;;;;;;;-5.43;79.11;98319.09;1769868;81;21355;-63
2021/01/12 04:37:57;;;;;;;29.23;18.15;;;;;;;-5.45;79.07;98324.33;1739304;82;21371;-63
2021/01/12 04:40:26;;;;;;;26.40;17.60;;;;;;;-5.45;79.12;98327.40;1739266;82;21060;-64
2021/01/12 04:42:57;;;;;;;27.75;17.90;;;;;;;-5.48;79.15;98325.66;1769866;81;21012;-64
2021/01/12 04:45:26;;;;;;;23.33;17.63;;;;;;;-5.50;79.12;98319.98;1739545;82;22700;-64
2021/01/12 04:47:54;;;;;;;31.68;19.05;;;;;;;-5.51;79.03;98315.66;1739350;82;20949;-64
2021/01/12 04:50:24;;;;;;;27.17;18.65;;;;;;;-5.53;78.95;98313.05;1769851;81;21364;-64
2021/01/12 04:52:52;;;;;;;26.60;19.73;;;;;;;-5.56;79.01;98313.06;1739326;82;21453;-64
2021/01/12 04:55:21;;;;;;;29.12;18.10;;;;;;;-5.59;78.95;98310.47;1739291;82;20984;-64
2021/01/12 04:57:52;;;;;;;45.45;23.62;;;;;;;-5.60;79.02;98310.02;1769770;81;20941;-62
2021/01/12 05:00:28;;;;;;;41.02;20.43;;;;;;;-5.61;78.95;98309.61;1739340;82;21012;-64
2021/01/12 05:03:06;;;;;;;36.68;21.05;;;;;;;-5.65;78.95;98313.97;1739314;82;21356;-63
2021/01/12 05:05:39;;;;;;;46.70;23.62;;;;;;;-5.67;79.00;98303.97;1769491;80;20929;-63
2021/01/12 05:08:09;;;;;;;69.27;25.30;;;;;;;-5.70;79.04;98302.67;1739339;82;20952;-64
2021/01/12 05:10:43;;;;;;;48.55;24.72;;;;;;;-5.72;79.01;98297.90;1739234;82;20956;-63
2021/01/12 05:13:12;;;;;;;47.62;27.87;;;;;;;-5.72;79.14;98299.63;1769828;81;20980;-65
2021/01/12 05:15:40;;;;;;;45.03;25.85;;;;;;;-5.74;79.05;98299.63;1739284;82;21368;-65
2021/01/12 05:18:10;;;;;;;45.10;25.70;;;;;;;-5.75;79.11;98290.52;1737652;82;20973;-63
2021/01/12 05:20:44;;;;;;;47.43;25.37;;;;;;;-5.77;79.11;98280.48;1739324;82;20940;-63
2021/01/12 05:23:14;;;;;;;47.90;26.37;;;;;;;-5.78;79.02;98285.30;1769874;81;20937;-64
2021/01/12 05:25:41;;;;;;;42.83;24.12;;;;;;;-5.79;79.01;98287.48;1739271;82;21012;-64
2021/01/12 05:28:11;;;;;;;47.78;27.65;;;;;;;-5.82;79.13;98277.47;1739253;82;21207;-64
2021/01/12 05:30:39;;;;;;;45.63;27.45;;;;;;;-5.82;79.15;98274.86;1769805;81;21068;-66
2021/01/12 05:33:07;;;;;;;55.70;27.80;;;;;;;-5.82;79.16;98277.47;1739292;82;20961;-63
2021/01/12 05:35:38;;;;;;;37.23;23.87;;;;;;;-5.83;79.10;98272.25;1739215;82;20940;-63
2021/01/12 05:38:08;;;;;;;43.35;26.70;;;;;;;-5.85;79.12;98261.80;1769863;81;21356;-63
2021/01/12 05:40:40;;;;;;;46.13;27.22;;;;;;;-5.83;79.13;98265.25;1739301;82;21375;-64
2021/01/12 05:43:12;;;;;;;47.93;27.52;;;;;;;-5.85;79.23;98261.80;1739461;82;21568;-65
2021/01/12 05:45:42;;;;;;;55.40;29.18;;;;;;;-5.84;79.50;98258.72;1769749;81;21023;-64
2021/01/12 05:48:11;;;;;;;45.48;28.10;;;;;;;-5.83;79.61;98261.33;1739241;82;21032;-65
2021/01/12 05:50:40;;;;;;;48.70;28.98;;;;;;;-5.82;79.65;98252.62;1737777;82;20917;-64
2021/01/12 05:53:15;;;;;;;51.20;27.67;;;;;;;-5.78;79.61;98252.59;1769930;81;22245;-63
2021/01/12 05:55:46;;;;;;;42.00;24.92;;;;;;;-5.76;79.60;98256.06;1739215;82;21028;-64
2021/01/12 05:58:23;;;;;;;46.65;26.52;;;;;;;-5.73;79.79;98245.13;1739255;82;20968;-61
2021/01/12 06:00:51;;;;;;;41.15;23.73;;;;;;;-5.66;79.84;98246.84;1738599;82;21032;-64
2021/01/12 06:03:19;;;;;;;41.35;24.23;;;;;;;-5.60;79.94;98243.30;1769874;81;20937;-63
2021/01/12 06:05:48;;;;;;;39.18;25.57;;;;;;;-5.54;79.89;98243.25;1745089;82;21888;-63
2021/01/12 06:08:16;;;;;;;50.90;26.42;;;;;;;-5.47;79.83;98246.68;1749833;82;20960;-63
2021/01/12 06:10:45;;;;;;;41.73;24.32;;;;;;;-5.42;79.77;98233.56;1780764;80;21015;-63
2021/01/12 06:13:14;;;;;;;50.70;26.70;;;;;;;-5.35;79.71;98236.12;1816775;79;20959;-63
2021/01/12 06:15:44;;;;;;;50.15;26.30;;;;;;;-5.30;79.64;98237.39;1816795;79;21005;-63
2021/01/12 06:18:18;;;;;;;51.00;26.97;;;;;;;-5.24;79.74;98234.72;1816807;79;21190;-63
2021/01/12 06:21:07;;;;;;;46.57;26.17;;;;;;;-5.18;79.66;98235.98;1749828;82;20951;-63
2021/01/12 06:23:48;;;;;;;41.65;26.40;;;;;;;-5.11;79.54;98231.13;1776298;80;20932;-63
2021/01/12 06:26:16;;;;;;;43.50;24.92;;;;;;;-5.07;79.25;98224.55;1816793;79;22165;-64
2021/01/12 06:28:44;;;;;;;47.70;26.17;;;;;;;-5.01;79.18;98224.46;1749864;82;21005;-62
2021/01/12 06:31:12;;;;;;;44.80;26.40;;;;;;;-4.99;79.05;98218.79;1724652;80;21395;-64
2021/01/12 06:33:40;;;;;;;70.95;27.77;;;;;;;-4.94;79.04;98223.53;1816664;79;21027;-65
2021/01/12 06:36:07;;;;;;;54.63;26.00;;;;;;;-4.92;78.94;98218.72;1749803;82;20918;-63
2021/01/12 06:38:38;;;;;;;36.33;23.98;;;;;;;-4.87;78.86;98219.09;1773744;80;20932;-64
2021/01/12 06:41:08;;;;;;;51.90;25.47;;;;;;;-4.85;78.93;98214.27;1816863;79;20920;-64
2021/01/12 06:43:36;;;;;;;49.60;25.72;;;;;;;-4.82;78.66;98214.24;1816779;79;21339;-64
2021/01/12 06:46:03;;;;;;;51.28;29.70;;;;;;;-4.81;78.52;98217.30;1816695;79;20991;-65
2021/01/12 06:48:36;;;;;;;64.40;33.30;;;;;;;-4.79;78.59;98219.45;1695881;82;20997;-64
2021/01/12 06:51:05;;;;;;;72.75;41.83;;;;;;;-4.77;78.57;98211.58;1748838;80;22213;-63
2021/01/12 06:53:33;;;;;;;102.50;48.95;;;;;;;-4.76;78.60;98210.25;1758312;79;20995;-64
2021/01/12 06:56:07;;;;;;;92.60;52.03;;;;;;;-4.74;78.62;98204.54;1749350;82;21266;-64
2021/01/12 06:58:46;;;;;;;68.35;41.35;;;;;;;-4.70;78.73;98208.44;1780644;80;20937;-62
2021/01/12 07:01:20;;;;;;;83.17;43.95;;;;;;;-4.68;78.79;98204.03;1816848;79;21429;-64
2021/01/12 07:03:48;;;;;;;44.45;28.38;;;;;;;-4.65;78.79;98209.24;1749834;82;20906;-62
2021/01/12 07:06:24;;;;;;;47.45;27.87;;;;;;;-4.63;78.66;98206.19;1748248;80;20891;-62
2021/01/12 07:08:55;;;;;;;38.35;23.95;;;;;;;-4.61;78.64;98200.47;1749560;82;21201;-62
2021/01/12 07:11:22;;;;;;;59.40;31.77;;;;;;;-4.58;78.55;98203.06;1749605;82;21007;-64
2021/01/12 07:13:53;;;;;;;54.85;29.50;;;;;;;-4.57;78.67;98197.80;1780593;80;21024;-61
2021/01/12 07:16:23;;;;;;;45.98;28.85;;;;;;;-4.55;78.64;98199.09;1749565;82;20987;-62
2021/01/12 07:18:59;;;;;;;77.03;32.58;;;;;;;-4.52;78.73;98185.95;1749596;82;21020;-63
2021/01/12 07:21:29;;;;;;;67.45;41.55;;;;;;;-4.50;78.82;98190.72;1780639;80;21376;-62
2021/01/12 07:24:02;;;;;;;57.70;35.03;;;;;;;-4.46;79.00;98191.12;1749721;82;21377;-62
2021/01/12 07:26:33;;;;;;;90.55;50.85;;;;;;;-4.42;79.04;98184.93;1749867;82;21026;-64
2021/01/12 07:29:05;;;;;;;111.65;70.30;;;;;;;-4.38;79.03;98187.95;1780504;80;21000;-62
2021/01/12 07:31:34;;;;;;;;;;;;;;;-4.33;79.15;98172.16;1783197;80;20952;-61
2021/01/12 07:34:01;;;;;;;109.60;72.17;;;;;;;-4.28;79.01;98176.03;1743671;82;21225;-63
2021/01/12 07:36:34;;;;;;;129.95;87.60;;;;;;;-4.26;79.08;98170.31;1753071;81;20991;-62
2021/01/12 07:39:02;;;;;;;94.52;52.58;;;;;;;-4.20;79.08;98172.86;1753194;81;21003;-63
2021/01/12 07:41:29;;;;;;;94.42;52.90;;;;;;;-4.17;79.11;98162.32;1753185;81;20921;-62
2021/01/12 07:43:56;;;;;;;97.95;54.42;;;;;;;-4.13;79.14;98167.96;1753147;81;20944;-63
2021/01/12 07:46:25;;;;;;;94.80;54.27;;;;;;;-4.08;79.27;98156.95;1753228;81;21396;-63
2021/01/12 07:48:53;;;;;;;78.67;47.70;;;;;;;-4.03;79.35;98165.61;1753158;81;20948;-63
2021/01/12 07:51:26;;;;;;;76.53;48.38;;;;;;;-3.98;79.67;98157.67;1750979;80;20988;-61
2021/01/12 07:53:54;;;;;;;69.97;42.45;;;;;;;-3.92;79.80;98153.65;1781098;80;21079;-62
2021/01/12 07:56:23;;;;;;;70.75;44.75;;;;;;;-3.87;79.75;98154.89;1781129;80;20944;-64
2021/01/12 07:58:50;;;;;;;73.97;47.15;;;;;;;-3.81;79.82;98157.42;1781097;80;21379;-61
2021/01/12 08:01:25;;;;;;;91.78;59.38;;;;;;;-3.76;79.91;98158.20;1781090;80;20964;-61
2021/01/12 08:03:53;;;;;;;74.12;45.83;;;;;;;-3.68;79.81;98160.72;1781154;80;21011;-61
2021/01/12 08:06:22;;;;;;;67.87;43.98;;;;;;;-3.62;79.85;98147.95;1779655;80;20936;-62
2021/01/12 08:08:57;;;;;;;113.72;64.35;;;;;;;-3.57;79.79;98157.92;1778933;80;20932;-62
2021/01/12 08:11:24;;;;;;;48.60;30.62;;;;;;;-3.50;80.09;98151.66;1779039;80;22285;-63
2021/01/12 08:14:07;;;;;;;98.87;57.98;;;;;;;-3.43;80.50;98154.61;1778828;80;21011;-62
2021/01/12 08:16:36;;;;;;;126.27;77.80;;;;;;;-3.33;80.44;98150.91;1778945;80;20928;-63
2021/01/12 08:19:04;;;;;;;57.90;31.42;;;;;;;-3.21;82.48;98151.62;1816815;79;21023;-63
2021/01/12 08:21:41;;;;;;;44.70;30.12;;;;;;;-3.09;83.33;98144.80;1749928;82;20996;-63
2021/01/12 08:24:08;;;;;;;48.50;30.00;;;;;;;-2.98;82.61;98145.91;1780827;80;21271;-67
2021/01/12 08:26:45;;;;;;;48.28;29.95;;;;;;;-2.88;81.79;98133.48;1816808;79;20936;-63
2021/01/12 08:29:22;;;;;;;49.93;29.40;;;;;;;-2.80;81.15;98140.30;1816812;79;20920;-65
2021/01/12 08:32:01;;;;;;;48.52;28.65;;;;;;;-2.74;80.71;98134.93;1785195;79;21042;-64
2021/01/12 08:34:34;;;;;;;49.67;29.30;;;;;;;-2.68;80.48;98123.44;1810228;79;20927;-64
2021/01/12 08:37:02;;;;;;;37.30;25.10;;;;;;;-2.61;80.45;98113.19;1816840;79;21206;-65
2021/01/12 08:39:31;;;;;;;45.05;26.82;;;;;;;-2.57;80.31;98120.13;1749743;82;21033;-64
2021/01/12 08:41:59;;;;;;;46.50;29.65;;;;;;;-2.50;80.23;98123.95;1780872;80;20940;-64
2021/01/12 08:44:26;;;;;;;52.27;29.42;;;;;;;-2.45;80.18;98112.88;1816755;79;20936;-63
2021/01/12 08:46:54;;;;;;;49.58;29.45;;;;;;;-2.40;80.10;98103.11;1816838;79;20983;-64
2021/01/12 08:49:32;;;;;;;56.18;33.30;;;;;;;-2.35;80.04;98097.28;1749950;82;21158;-64
2021/01/12 08:52:02;;;;;;;65.03;36.05;;;;;;;-2.32;79.92;98095.91;1780795;80;20957;-64
2021/01/12 08:54:29;;;;;;;56.77;35.05;;;;;;;-2.28;79.93;98096.27;1816907;79;20897;-64
2021/01/12 08:57:02;;;;;;;52.88;33.67;;;;;;;-2.23;80.02;98090.44;1749852;82;20946;-65
2021/01/12 08:59:33;;;;;;;54.35;32.63;;;;;;;-2.19;80.05;98088.16;1780841;80;21015;-65
2021/01/12 09:02:01;;;;;;;41.23;26.95;;;;;;;-2.14;79.99;98084.11;1816836;79;21200;-64
2021/01/12 09:04:29;;;;;;;39.45;25.05;;;;;;;-2.07;80.00;98083.51;1816868;79;21374;-56
2021/01/12 09:07:05;;;;;;;38.80;27.50;;;;;;;-2.03;80.07;98078.14;1755160;81;20933;-64
2021/01/12 09:09:34;;;;;;;40.30;26.35;;;;;;;-1.98;80.82;98071.45;1789312;80;20948;-64
2021/01/12 09:12:07;;;;;;;34.60;23.05;;;;;;;-1.93;80.70;98076.14;1757878;81;21031;-61
2021/01/12 09:14:34;;;;;;;35.65;24.20;;;;;;;-1.86;80.70;98073.78;1764419;80;21358;-63
2021/01/12 09:17:02;;;;;;;32.28;22.93;;;;;;;-1.80;80.77;98069.27;1715215;80;21014;-64
2021/01/12 09:19:38;;;;;;;32.63;22.50;;;;;;;-1.73;80.81;98061.64;1792411;80;21015;-64
2021/01/12 09:22:15;;;;;;;37.50;24.27;;;;;;;-1.66;80.89;98048.70;1792476;80;20920;-64
2021/01/12 09:24:39;;;;;;;35.73;21.93;;;;;;;-1.58;80.94;98057.27;1791624;80;20948;-63
2021/01/12 09:27:07;;;;;;;33.63;22.45;;;;;;;-1.50;80.87;98055.33;1792356;80;22066;-65
2021/01/12 09:29:38;;;;;;;27.30;20.57;;;;;;;-1.41;80.78;98046.76;1792435;80;21505;-64
2021/01/12 09:32:06;;;;;;;29.77;21.85;;;;;;;-1.33;80.67;98035.55;1792441;80;20951;-63
2021/01/12 09:34:36;;;;;;;30.27;21.70;;;;;;;-1.26;80.62;98037.13;1792429;80;20983;-63
2021/01/12 09:37:15;;;;;;;33.02;22.95;;;;;;;-1.17;80.57;98029.41;1792466;80;20947;-63
2021/01/12 09:39:46;;;;;;;40.75;24.90;;;;;;;-1.08;80.53;98033.56;1792332;80;21371;-64
2021/01/12 09:42:20;;;;;;;35.43;24.32;;;;;;;-1.00;80.50;98022.34;1728584;81;21030;-63
2021/01/12 09:44:52;;;;;;;35.70;24.07;;;;;;;-0.92;80.45;98024.30;1755065;81;21011;-63
2021/01/12 09:47:20;;;;;;;35.58;22.35;;;;;;;-0.85;80.45;98019.27;1789424;80;21334;-64
2021/01/12 09:49:48;;;;;;;34.50;23.20;;;;;;;-0.76;80.35;98012.83;1758242;81;20952;-63
2021/01/12 09:52:17;;;;;;;31.62;22.32;;;;;;;-0.68;80.34;98012.61;1758179;81;21236;-63
2021/01/12 09:54:46;;;;;;;30.00;21.68;;;;;;;-0.61;80.16;98004.93;1788997;80;38286;-63
2021/01/12 09:57:14;;;;;;;31.27;21.73;;;;;;;-0.52;80.05;98003.33;1758172;81;21012;-63
2021/01/12 09:59:43;;;;;;;33.75;21.90;;;;;;;-0.46;79.96;97997.83;1757975;81;21019;-64
2021/01/12 10:02:11;;;;;;;32.98;23.90;;;;;;;-0.38;79.83;97994.95;1789384;80;20978;-63
2021/01/12 10:04:39;;;;;;;40.90;25.52;;;;;;;-0.30;79.79;97997.36;1758159;81;21206;-64
2021/01/12 10:07:09;;;;;;;43.73;28.00;;;;;;;-0.24;79.74;97986.13;1757822;81;20904;-63
2021/01/12 10:09:40;;;;;;;46.58;34.08;;;;;;;-0.17;79.70;97980.22;1789322;80;20992;-64
2021/01/12 10:12:10;;;;;;;76.05;49.38;;;;;;;-0.10;79.54;97976.92;1828324;78;21607;-63
2021/01/12 10:14:38;;;;;;;59.50;37.88;;;;;;;-0.04;79.37;97976.25;1758334;81;20926;-62
2021/01/12 10:17:09;;;;;;;55.70;35.38;;;;;;;0.03;79.32;97970.77;1789670;80;21500;-62
2021/01/12 10:19:39;;;;;;;47.40;30.50;;;;;;;0.10;79.16;97967.02;1828500;78;20951;-63
2021/01/12 10:22:07;;;;;;;46.65;30.62;;;;;;;0.15;79.10;97961.11;1758462;81;20954;-64
2021/01/12 10:24:34;;;;;;;47.73;29.23;;;;;;;0.22;78.90;97958.67;1789585;80;21011;-64
2021/01/12 10:27:03;;;;;;;49.25;29.87;;;;;;;0.30;78.80;97956.63;1828631;78;20968;-64
2021/01/12 10:29:31;;;;;;;61.85;39.18;;;;;;;0.34;78.56;97950.30;1758346;81;21383;-64
2021/01/12 10:32:01;;;;;;;44.95;29.27;;;;;;;0.39;78.56;97942.20;1789595;80;20995;-63
2021/01/12 10:34:30;;;;;;;47.33;30.35;;;;;;;0.44;78.42;97948.21;1828662;78;21019;-63
2021/01/12 10:36:57;;;;;;;51.95;35.13;;;;;;;0.48;78.44;97933.95;1828580;78;20916;-63
2021/01/12 10:39:25;;;;;;;48.25;30.70;;;;;;;0.53;78.35;97937.75;1828597;78;20904;-63
2021/01/12 10:41:55;;;;;;;43.05;29.63;;;;;;;0.59;78.29;97932.25;1758385;81;22253;-63
2021/01/12 10:44:23;;;;;;;66.28;48.42;;;;;;;0.61;77.97;97927.75;1789568;80;20975;-64
2021/01/12 10:46:56;;;;;;;51.58;34.15;;;;;;;0.65;77.76;97925.41;1828763;78;20955;-63
2021/01/12 10:49:24;;;;;;;46.48;31.87;;;;;;;0.69;77.83;97912.50;1828750;78;20990;-63
2021/01/12 10:52:02;;;;;;;38.25;28.90;;;;;;;0.72;77.75;97918.96;1828858;78;20987;-64
2021/01/12 10:54:31;;;;;;;42.60;30.10;;;;;;;0.76;77.57;97908.27;1758654;81;22197;-64
2021/01/12 10:57:00;;;;;;;45.70;30.12;;;;;;;0.80;77.36;97907.25;1789625;80;20999;-64
2021/01/12 10:59:30;;;;;;;38.50;27.07;;;;;;;0.83;77.12;97908.46;1828719;78;21276;-63
2021/01/12 11:02:02;;;;;;;33.90;24.75;;;;;;;0.86;77.28;97900.41;1757776;81;21048;-64
2021/01/12 11:04:32;;;;;;;47.88;28.80;;;;;;;0.87;77.39;97895.54;1789840;80;21011;-63
2021/01/12 11:07:02;;;;;;;38.25;26.82;;;;;;;0.92;77.33;97884.78;1819277;78;21596;-63
2021/01/12 11:09:32;;;;;;;36.40;25.37;;;;;;;0.94;77.21;97880.30;1805736;79;21433;-64
2021/01/12 11:12:07;;;;;;;38.15;27.02;;;;;;;0.97;77.01;97886.31;1739364;82;21025;-64
2021/01/12 11:14:38;;;;;;;37.93;26.75;;;;;;;1.00;76.79;97886.20;1769916;81;20953;-63
2021/01/12 11:17:05;;;;;;;41.30;28.75;;;;;;;1.03;76.66;97877.30;1739450;82;20996;-62
2021/01/12 11:19:34;;;;;;;37.88;29.07;;;;;;;1.04;76.79;97864.01;1739405;82;21272;-63
2021/01/12 11:22:02;;;;;;;43.78;29.37;;;;;;;1.07;76.73;97862.56;1769802;81;21004;-62
2021/01/12 11:24:29;;;;;;;45.83;29.72;;;;;;;1.10;76.45;97852.30;1739378;82;20964;-63
2021/01/12 11:26:57;;;;;;;45.40;28.30;;;;;;;1.14;76.30;97845.98;1739348;82;20947;-66
2021/01/12 11:29:26;;;;;;;45.12;28.62;;;;;;;1.16;76.15;97855.18;1769903;81;20913;-62